Nearby METAR* Reports

*"METAR [Météorologique Aviation Régulière] is the international standard code format for hourly surface weather observations which is analogous to the SA coding currently used in the US. The acronym roughly translates from French as Aviation Routine Weather Report." (Source: http://gosic.org/wdcmet/us-metar-faq-taf)

 

KTEB - Teterboro, New Jersey, USA
Distance from station: ENE 2mi, 3km
Updated: 08/09/2020 11:51am
Partly cloudy
Partly cloudy
 Wind from W
Wind: W 5 mph , 7 km/h
Temperature: 84°F , 29°C
Heat Index: 88°F , 31°C
Dew Point: 70°F , 21°C
Humidity: 62%
Barometer: 30.09 inHg , 1019 hPa
Clouds: Partly cloudy
Visibility: 10 miles , 16 km
Cloud details: Partly cloudy 4000 ft
Partly cloudy 5000 ft
2020/08/09 15:51 KTEB 091551Z 26004KT 10SM SCT040 SCT050 29/21 A3009 RMK AO2 SLP190 T02940206
KNYC - Nyc/Central Park, New York, USA
Distance from station: SE 8mi, 13km
Updated: 08/09/2020 11:51am

 Wind from varies
Wind: varies 3 mph , 6 km/h
Temperature: 82°F , 28°C
Heat Index: 86°F , 30°C
Dew Point: 70°F , 21°C
Humidity: 66%
Barometer: 30.14 inHg , 1020.7 hPa
Visibility: 10 miles , 16 km
2020/08/09 15:51 KNYC 091551Z AUTO VRB03KT 10SM 28/21 A3014 RMK AO2 SLP195 T02830206 $
KCDW - Caldwell, New Jersey, USA
Distance from station: W 11mi, 17km
Updated: 08/09/2020 11:53am
Mostly cloudy
Mostly cloudy
 Wind from WNW
Wind: WNW 7 mph , 11 km/h
Temperature: 86°F , 30°C
Heat Index: 89°F , 32°C
Dew Point: 68°F , 20°C
Humidity: 55%
Barometer: 30.11 inHg , 1019.6 hPa
Clouds: Mostly cloudy
Visibility: 10 miles , 16 km
Cloud details: Few Clouds 3000 ft
Partly cloudy 5000 ft
Mostly cloudy 8000 ft
2020/08/09 15:53 KCDW 091553Z 29006KT 10SM FEW030 SCT050 BKN080 30/20 A3011 RMK AO2 SLP200 T03000200 $
 
KLGA - Nyc/La Guardia, New York, USA
Distance from station: ESE 12mi, 19km
Updated: 08/09/2020 11:51am
Partly cloudy
Partly cloudy
 Wind from SSW
Wind: SSW 8 mph , 13 km/h
Temperature: 88°F , 31°C
Heat Index: 89°F , 32°C
Dew Point: 63°F , 17°C
Humidity: 43%
Barometer: 30.10 inHg , 1019.3 hPa
Clouds: Partly cloudy
Visibility: 10 miles , 16 km
Cloud details: Partly cloudy 4600 ft
Partly cloudy 8000 ft
2020/08/09 15:51 KLGA 091551Z 21007KT 10SM SCT046 SCT080 31/17 A3010 RMK AO2 SLP193 T03060167
KEWR - Newark, New Jersey, USA
Distance from station: SSW 13mi, 20km
Updated: 08/09/2020 11:51am
Mostly cloudy
Mostly cloudy
 Wind from WSW
Wind: WSW 7 mph , 11 km/h
Temperature: 86°F , 30°C
Heat Index: 91°F , 33°C
Dew Point: 70°F , 21°C
Humidity: 59%
Barometer: 30.11 inHg , 1019.6 hPa
Clouds: Mostly cloudy
Visibility: 10 miles , 16 km
Cloud details: Partly cloudy 3500 ft
Mostly cloudy 5500 ft
Mostly cloudy 9000 ft
Mostly cloudy 25000 ft
2020/08/09 15:51 KEWR 091551Z 24006KT 10SM SCT035 BKN055 BKN090 BKN250 30/21 A3011 RMK AO2 SLP194 T03000206
KMMU - Morristown Muni, New Jersey, USA
Distance from station: WSW 18mi, 29km
Updated: 08/09/2020 11:45am
Partly cloudy
Partly cloudy
 Wind from SW
Wind: SW 10 mph , 17 km/h
Temperature: 86°F , 30°C
Heat Index: 95°F , 35°C
Dew Point: 75°F , 24°C
Humidity: 70%
Barometer: 30.12 inHg , 1020 hPa
Clouds: Partly cloudy
Visibility: 10 miles , 16 km
Cloud details: Partly cloudy 2700 ft
Partly cloudy 3500 ft
2020/08/09 15:45 KMMU 091545Z 22009KT 10SM SCT027 SCT035 30/24 A3012
 
KLDJ - Linden, New Jersey, USA
Distance from station: SSW 19mi, 30km
Updated: 08/09/2020 12:35pm
Partly cloudy
Partly cloudy
 Wind from calm
Wind: Calm
Barometer: 30.11 inHg , 1019.6 hPa
Clouds: Partly cloudy
Visibility: 10 miles , 16 km
Cloud details: Partly cloudy 3600 ft
Partly cloudy 4200 ft
2020/08/09 16:35 KLDJ 091635Z AUTO 00000KT 10SM SCT036 SCT042 A3011 RMK AO2
KJFK - Nyc/Jfk Arpt, New York, USA
Distance from station: SE 23mi, 36km
Updated: 08/09/2020 11:51am
Mostly cloudy
Mostly cloudy
 Wind from S
Wind: S 10 mph , 17 km/h
Temperature: 81°F , 27°C
Heat Index: 85°F , 29°C
Dew Point: 72°F , 22°C
Humidity: 74%
Barometer: 30.13 inHg , 1020.3 hPa
Clouds: Mostly cloudy
Visibility: 10 miles , 16 km
Cloud details: Few Clouds 4000 ft
Partly cloudy 20000 ft
Mostly cloudy 25000 ft
2020/08/09 15:51 KJFK 091551Z 19009KT 10SM FEW040 SCT200 BKN250 27/22 A3013 RMK AO2 SLP201 T02720222 $
KHPN - White Plains, New York, USA
Distance from station: NE 25mi, 40km
Updated: 08/09/2020 11:56am
Partly cloudy
Partly cloudy
 Wind from S
Wind: S 7 mph , 11 km/h
Temperature: 82°F , 28°C
Heat Index: 84°F , 29°C
Dew Point: 66°F , 19°C
Humidity: 58%
Barometer: 30.11 inHg , 1019.6 hPa
Clouds: Partly cloudy
Visibility: 10 miles , 16 km
Cloud details: Few Clouds 4600 ft
Few Clouds 6000 ft
Partly cloudy 8000 ft
2020/08/09 15:56 KHPN 091556Z 19006KT 10SM FEW046 FEW060 SCT080 28/19 A3011 RMK AO2 SLP191 T02780189
 
KSMQ - Somerville, New Jersey, USA
Distance from station: WSW 35mi, 56km
Updated: 08/09/2020 11:53am
Clear
Clear
 Wind from calm
Wind: Calm
Temperature: 82°F , 28°C
Heat Index: 86°F , 30°C
Dew Point: 72°F , 22°C
Humidity: 70%
Barometer: 30.10 inHg , 1019.3 hPa
Clouds: Clear
Visibility: 10 miles , 16 km
2020/08/09 15:53 KSMQ 091553Z AUTO 00000KT 10SM CLR 28/22 A3010 RMK AO2 SLP191 T02830217
K12N - Andover, New Jersey, USA
Distance from station: WNW 36mi, 57km
Updated: 08/09/2020 11:54am

 Wind from SW
Wind: SW 5 mph , 7 km/h
Temperature: 81°F , 27°C
Heat Index: 85°F , 29°C
Dew Point: 70°F , 21°C
Humidity: 70%
Barometer: 30.14 inHg , 1020.7 hPa
2020/08/09 15:54 K12N 091554Z AUTO 22004KT 27/21 A3014 RMK AO1 SLP196 T02670211
KFRG - Farmingdale, New York, USA
Distance from station: ESE 36mi, 58km
Updated: 08/09/2020 11:53am
Clear
Clear
 Wind from S
Wind: S 9 mph , 15 km/h
Temperature: 82°F , 28°C
Heat Index: 86°F , 30°C
Dew Point: 72°F , 22°C
Humidity: 70%
Barometer: 30.12 inHg , 1020 hPa
Clouds: Clear
Visibility: 10 miles , 16 km
2020/08/09 15:53 KFRG 091553Z 19008KT 10SM CLR 28/22 A3012 RMK AO2 SLP198 T02830217
 
KFWN - Sussex, New Jersey, USA
Distance from station: NW 37mi, 60km
Updated: 08/09/2020 11:53am
Clear
Clear
 Wind from varies
Wind: varies 5 mph , 7 km/h
Temperature: 81°F , 27°C
Heat Index: 85°F , 29°C
Dew Point: 72°F , 22°C
Humidity: 74%
Barometer: 30.12 inHg , 1020 hPa
Clouds: Clear
Visibility: 10 miles , 16 km
2020/08/09 15:53 KFWN 091553Z AUTO VRB04KT 10SM CLR 27/22 A3012 RMK AO2 SLP196 T02670217
KSWF - Newburgh/Stewart, New York, USA
Distance from station: 0 44mi, 72km
Updated: 08/09/2020 12:45pm
Partly cloudy
Partly cloudy
 Wind from WSW
Wind: WSW 8 mph , 13 km/h
Temperature: 84°F , 29°C
Heat Index: 87°F , 31°C
Dew Point: 68°F , 20°C
Humidity: 58%
Barometer: 30.10 inHg , 1019.3 hPa
Clouds: Partly cloudy
Visibility: 10 miles , 16 km
Cloud details: Partly cloudy 3000 ft
2020/08/09 16:45 KSWF 091645Z 24007KT 10SM SCT030 29/20 A3010
KMGJ - Montgomery, New York, USA
Distance from station: NNW 47mi, 75km
Updated: 08/04/2020 4:54pm
NOT Current
Light rain, Overcast
Light rain, Overcast
 Wind from W
Wind: W 24 mph , 39 km/h, Gust: 45 mph , 72 km/h
Temperature: 70°F , 21°C
Dew Point: 64°F , 18°C
Humidity: 83%
Barometer: 29.54 inHg , 1000.3 hPa
Summary: Light rain
Clouds: Overcast
Visibility: 9 miles , 14 km
Cloud details: Few Clouds 1200 ft
Mostly cloudy 2500 ft
Overcast 4200 ft
2020/08/04 20:54 KMGJ 042054Z AUTO 27021G39KT 9SM -RA FEW012 BKN025 OVC042 21/18 A2954 RMK AO2 PK WND 26039/2046 WSHFT 2027 RAB12 PRESRR SLP003 P0000 60020 T02060183
 
KDXR - Danbury, Connecticut, USA
Distance from station: NE 47mi, 76km
Updated: 08/09/2020 12:05pm
Partly cloudy
Partly cloudy
 Wind from WSW
Wind: WSW 7 mph , 11 km/h
Temperature: 81°F , 27°C
Heat Index: 83°F , 28°C
Dew Point: 66°F , 19°C
Humidity: 62%
Barometer: 30.12 inHg , 1020 hPa
Clouds: Partly cloudy
Visibility: 10 miles , 16 km
Cloud details: Partly cloudy 2500 ft
Partly cloudy 5000 ft
2020/08/09 16:05 KDXR 091605Z 25006KT 10SM SCT025 SCT050 27/19 A3012 RMK AO2 T02720194
KBLM - Belmar/Farmdale, New Jersey, USA
Distance from station: S 48mi, 77km
Updated: 08/09/2020 11:56am
Mostly cloudy
Mostly cloudy
 Wind from calm
Wind: Calm
Temperature: 84°F , 29°C
Heat Index: 89°F , 32°C
Dew Point: 72°F , 22°C
Humidity: 66%
Barometer: 30.14 inHg , 1020.7 hPa
Clouds: Mostly cloudy
Visibility: 10 miles , 16 km
Cloud details: Mostly cloudy 3100 ft
2020/08/09 15:56 KBLM 091556Z AUTO 00000KT 10SM BKN031 29/22 A3014 RMK AO2 SLP204 T02890217